createdAt,value
2022-08-19T00:01:56.744Z,29.20
2022-08-19T00:04:29.476Z,28.99
2022-08-19T00:06:57.380Z,28.99
2022-08-19T00:09:25.705Z,28.92
2022-08-19T00:11:54.387Z,28.81
2022-08-19T00:14:23.248Z,28.94
2022-08-19T00:16:55.031Z,28.69
2022-08-19T00:19:24.320Z,28.70
2022-08-19T00:21:52.523Z,28.87
2022-08-19T00:24:20.826Z,28.97
2022-08-19T00:26:48.532Z,28.52
2022-08-19T00:29:18.410Z,28.73
2022-08-19T00:31:46.218Z,28.62
2022-08-19T00:34:15.025Z,28.41
2022-08-19T00:36:43.752Z,28.40
2022-08-19T00:39:11.954Z,28.53
2022-08-19T00:41:40.396Z,28.50
2022-08-19T00:44:26.687Z,28.84
2022-08-19T00:46:58.391Z,28.47
2022-08-19T00:49:33.962Z,28.55
2022-08-19T00:52:03.976Z,28.70
2022-08-19T00:54:32.528Z,28.58
2022-08-19T00:57:00.624Z,28.90
2022-08-19T00:59:53.339Z,28.56
2022-08-19T01:02:17.684Z,28.49
2022-08-19T01:04:45.117Z,28.43
2022-08-19T01:07:13.139Z,28.38
2022-08-19T01:09:42.987Z,28.37
2022-08-19T01:12:10.666Z,28.30
2022-08-19T01:14:40.249Z,28.24
2022-08-19T01:17:11.595Z,28.00
2022-08-19T01:19:43.847Z,28.35
2022-08-19T01:22:14.346Z,28.37
2022-08-19T01:24:49.703Z,28.08
2022-08-19T01:27:18.038Z,28.32
2022-08-19T01:29:45.986Z,28.33
2022-08-19T01:32:32.356Z,28.48
2022-08-19T01:35:06.425Z,28.57
2022-08-19T01:37:51.087Z,28.03
2022-08-19T01:40:21.315Z,28.37
2022-08-19T01:42:50.200Z,28.64
2022-08-19T01:45:18.927Z,28.05
2022-08-19T01:47:51.697Z,28.40
2022-08-19T01:50:31.462Z,27.96
2022-08-19T01:53:02.456Z,28.20
2022-08-19T01:55:40.884Z,27.88
2022-08-19T01:58:16.589Z,28.08
2022-08-19T02:00:44.467Z,27.81
2022-08-19T02:03:12.578Z,27.64
2022-08-19T02:05:41.558Z,27.90
2022-08-19T02:08:09.537Z,27.95
2022-08-19T02:10:43.326Z,28.10
2022-08-19T02:13:12.181Z,27.80
2022-08-19T02:15:39.990Z,27.93
2022-08-19T02:18:08.408Z,27.90
2022-08-19T02:20:36.750Z,28.02
2022-08-19T02:23:04.508Z,27.72
2022-08-19T02:25:31.915Z,27.79
2022-08-19T02:27:59.574Z,28.16
2022-08-19T02:30:27.462Z,28.18
2022-08-19T02:32:55.112Z,27.80
2022-08-19T02:35:23.180Z,27.83
2022-08-19T02:38:09.526Z,27.65
2022-08-19T02:40:37.046Z,27.63
2022-08-19T02:43:08.484Z,27.53
2022-08-19T02:45:40.586Z,27.41
2022-08-19T02:48:17.900Z,27.55
2022-08-19T02:50:56.392Z,27.80
2022-08-19T02:53:26.771Z,27.49
2022-08-19T02:55:54.632Z,27.83
2022-08-19T02:58:22.740Z,27.69
2022-08-19T03:00:53.922Z,27.95
2022-08-19T03:03:22.231Z,28.07
2022-08-19T03:05:56.995Z,27.85
2022-08-19T03:08:26.589Z,27.84
2022-08-19T03:10:54.933Z,27.72
2022-08-19T03:13:22.669Z,27.23
2022-08-19T03:15:50.334Z,27.50
2022-08-19T03:18:18.355Z,27.11
2022-08-19T03:20:50.532Z,27.23
2022-08-19T03:23:18.475Z,27.19
2022-08-19T03:26:03.166Z,27.38
2022-08-19T03:28:36.227Z,27.12
2022-08-19T03:31:44.494Z,27.04
2022-08-19T03:33:55.251Z,26.75
2022-08-19T03:36:25.349Z,27.04
2022-08-19T03:38:57.521Z,27.04
2022-08-19T03:41:34.397Z,27.01
2022-08-19T03:44:18.300Z,27.20
2022-08-19T03:46:48.464Z,26.86
2022-08-19T03:49:18.517Z,26.70
2022-08-19T03:51:47.558Z,27.00
2022-08-19T03:54:17.438Z,27.11
2022-08-19T03:56:46.065Z,27.40
2022-08-19T03:59:20.316Z,27.06
2022-08-19T04:01:48.293Z,27.09
2022-08-19T04:04:16.045Z,26.54
2022-08-19T04:06:44.382Z,26.80
2022-08-19T04:09:12.447Z,26.99
2022-08-19T04:11:44.969Z,27.29
2022-08-19T04:14:15.121Z,27.36
2022-08-19T04:16:43.725Z,27.39
2022-08-19T04:19:11.497Z,27.41
2022-08-19T04:21:38.972Z,26.97
2022-08-19T04:24:06.943Z,27.30
2022-08-19T04:26:37.158Z,27.36
2022-08-19T04:29:12.538Z,27.28
2022-08-19T04:31:42.021Z,27.27
2022-08-19T04:34:14.737Z,27.23
2022-08-19T04:36:45.556Z,27.52
2022-08-19T04:39:18.178Z,27.24
2022-08-19T04:42:04.397Z,27.65
2022-08-19T04:44:35.134Z,27.74
2022-08-19T04:47:11.058Z,27.70
2022-08-19T04:49:39.024Z,27.79
2022-08-19T04:52:06.722Z,27.66
2022-08-19T04:54:38.537Z,27.69
2022-08-19T04:57:10.727Z,27.57
2022-08-19T04:59:39.651Z,27.29
2022-08-19T05:02:09.436Z,27.47
2022-08-19T05:04:40.263Z,27.20
2022-08-19T05:07:09.026Z,27.44
2022-08-19T05:09:56.728Z,26.97
2022-08-19T05:12:28.919Z,27.41
2022-08-19T05:14:58.390Z,27.18
2022-08-19T05:17:29.061Z,27.62
2022-08-19T05:20:16.346Z,27.43
2022-08-19T05:22:45.224Z,27.65
2022-08-19T05:25:15.909Z,27.53
2022-08-19T05:27:43.872Z,27.62
2022-08-19T05:30:12.786Z,27.76
2022-08-19T05:32:41.162Z,27.78
2022-08-19T05:35:09.259Z,27.84
2022-08-19T05:37:36.670Z,27.80
2022-08-19T05:40:04.785Z,28.08
2022-08-19T05:42:32.886Z,28.51
2022-08-19T05:45:00.779Z,28.30
2022-08-19T05:47:28.439Z,28.44
2022-08-19T05:49:56.188Z,28.22
2022-08-19T05:52:25.368Z,28.55
2022-08-19T05:54:56.551Z,28.15
2022-08-19T05:57:25.205Z,28.51
2022-08-19T05:59:58.293Z,28.77
2022-08-19T06:02:27.362Z,28.23
2022-08-19T06:04:55.207Z,28.33
2022-08-19T06:07:22.746Z,28.27
2022-08-19T06:10:01.028Z,28.39
2022-08-19T06:12:35.398Z,28.53
2022-08-19T06:15:07.706Z,29.00
2022-08-19T06:17:36.217Z,28.87
2022-08-19T06:20:06.441Z,28.68
2022-08-19T06:22:41.349Z,28.66
2022-08-19T06:25:10.308Z,28.54
2022-08-19T06:27:48.306Z,28.99
2022-08-19T06:30:26.106Z,28.71
2022-08-19T06:32:53.583Z,28.72
2022-08-19T06:35:21.130Z,28.75
2022-08-19T06:37:48.843Z,28.81
2022-08-19T06:40:16.592Z,28.90
2022-08-19T06:42:44.857Z,28.98
2022-08-19T06:45:24.833Z,29.19
2022-08-19T06:47:55.378Z,29.18
2022-08-19T06:50:26.300Z,29.17
2022-08-19T06:52:53.877Z,29.37
2022-08-19T06:55:21.408Z,29.94
2022-08-19T06:57:49.360Z,29.63
2022-08-19T07:00:17.123Z,29.63
2022-08-19T07:02:49.595Z,29.71
2022-08-19T07:05:22.077Z,29.84
2022-08-19T07:07:49.505Z,30.27
2022-08-19T07:10:19.481Z,30.31
2022-08-19T07:12:48.551Z,30.68
2022-08-19T07:15:16.877Z,30.54
2022-08-19T07:17:46.297Z,30.69
2022-08-19T07:20:17.854Z,30.77
2022-08-19T07:22:47.498Z,30.85
2022-08-19T07:25:15.138Z,31.40
2022-08-19T07:27:46.360Z,31.69
2022-08-19T07:30:14.447Z,32.17
2022-08-19T07:32:41.921Z,32.76
2022-08-19T07:35:10.598Z,33.07
2022-08-19T07:37:38.296Z,34.00
2022-08-19T07:40:08.100Z,34.84
2022-08-19T07:42:35.925Z,35.94
2022-08-19T07:45:04.368Z,36.51
2022-08-19T07:47:47.817Z,36.80
2022-08-19T07:50:20.697Z,37.31
2022-08-19T07:52:50.680Z,37.47
2022-08-19T07:55:42.321Z,38.20
2022-08-19T07:58:13.616Z,38.38
2022-08-19T08:00:42.661Z,38.80
2022-08-19T08:03:11.343Z,38.76
2022-08-19T08:05:57.339Z,38.91
2022-08-19T08:08:44.364Z,38.84
2022-08-19T08:11:20.711Z,38.82
2022-08-19T08:14:00.480Z,38.89
2022-08-19T08:16:32.246Z,38.06
2022-08-19T08:19:00.482Z,38.31
2022-08-19T08:21:28.784Z,38.53
2022-08-19T08:23:56.700Z,38.37
2022-08-19T08:26:24.836Z,38.38
2022-08-19T08:28:53.378Z,38.05
2022-08-19T08:31:21.184Z,38.34
2022-08-19T08:33:49.071Z,38.64
2022-08-19T08:36:17.536Z,38.25
2022-08-19T08:38:48.361Z,38.10
2022-08-19T08:41:53.787Z,38.30
2022-08-19T08:44:28.527Z,37.99
2022-08-19T08:46:59.995Z,37.29
2022-08-19T08:49:52.519Z,37.74
2022-08-19T08:52:31.833Z,37.49
2022-08-19T08:55:01.263Z,37.27
2022-08-19T08:57:42.465Z,37.47
2022-08-19T09:00:17.553Z,37.23
2022-08-19T09:02:50.957Z,37.50
2022-08-19T09:05:22.206Z,37.12
2022-08-19T09:08:03.658Z,36.69
2022-08-19T09:10:44.441Z,36.87
2022-08-19T09:13:38.222Z,36.89
2022-08-19T09:16:14.307Z,36.94
2022-08-19T09:18:54.463Z,37.10
2022-08-19T09:21:33.124Z,37.35
2022-08-19T09:24:05.494Z,37.64
2022-08-19T09:26:47.277Z,37.29
2022-08-19T09:29:22.671Z,37.53
2022-08-19T09:31:51.020Z,37.43
2022-08-19T09:34:22.099Z,37.37
2022-08-19T09:36:54.141Z,37.75
2022-08-19T09:39:22.780Z,37.97
2022-08-19T09:41:53.955Z,38.12
2022-08-19T09:44:21.884Z,38.00
2022-08-19T09:46:50.132Z,37.63
2022-08-19T09:49:19.792Z,37.27
2022-08-19T09:51:52.058Z,37.75
2022-08-19T09:54:23.652Z,37.54
2022-08-19T09:56:56.664Z,37.86
2022-08-19T09:59:24.747Z,37.92
2022-08-19T10:01:52.791Z,37.67
2022-08-19T10:04:22.435Z,37.95
2022-08-19T10:06:53.874Z,38.49
2022-08-19T10:09:26.128Z,38.64
2022-08-19T10:12:03.013Z,38.49
2022-08-19T10:14:31.927Z,38.57
2022-08-19T10:17:01.338Z,38.60
2022-08-19T10:19:55.305Z,38.76
2022-08-19T10:22:23.647Z,38.92
2022-08-19T10:24:54.564Z,38.76
2022-08-19T10:27:22.499Z,38.73
2022-08-19T10:29:50.184Z,39.12
2022-08-19T10:32:18.262Z,39.23
2022-08-19T10:34:48.644Z,39.68
2022-08-19T10:37:23.857Z,39.25
2022-08-19T10:39:57.034Z,38.96
2022-08-19T10:42:24.476Z,39.59
2022-08-19T10:44:52.191Z,39.88
2022-08-19T10:47:25.911Z,39.94
2022-08-19T10:50:13.321Z,40.20
2022-08-19T10:52:49.611Z,40.39
2022-08-19T10:55:42.223Z,40.53
2022-08-19T10:58:23.226Z,40.18
2022-08-19T11:00:59.219Z,40.41
2022-08-19T11:03:28.940Z,40.81
2022-08-19T11:06:05.276Z,40.99
2022-08-19T11:08:35.846Z,41.12
2022-08-19T11:11:04.338Z,40.57
2022-08-19T11:13:34.983Z,41.21
2022-08-19T11:16:08.999Z,41.17
2022-08-19T11:18:39.788Z,40.55
2022-08-19T11:21:14.149Z,41.26
2022-08-19T11:23:41.785Z,40.92
2022-08-19T11:26:09.470Z,41.27
2022-08-19T11:28:37.433Z,41.41
2022-08-19T11:31:05.136Z,40.76
2022-08-19T11:33:33.701Z,39.94
2022-08-19T11:36:02.140Z,39.83
2022-08-19T11:38:30.238Z,40.42
2022-08-19T11:41:03.450Z,40.97
2022-08-19T11:43:37.202Z,40.94
2022-08-19T11:46:08.036Z,40.83
2022-08-19T11:48:36.076Z,39.88
2022-08-19T11:51:09.661Z,39.50
2022-08-19T11:53:37.618Z,39.66
2022-08-19T11:56:09.094Z,40.04
2022-08-19T11:58:37.372Z,40.43
2022-08-19T12:01:09.468Z,40.23
2022-08-19T12:03:38.653Z,40.62
2022-08-19T12:06:11.357Z,39.24
2022-08-19T12:08:39.515Z,40.41
2022-08-19T12:11:08.867Z,40.10
2022-08-19T12:13:36.295Z,39.48
2022-08-19T12:16:24.681Z,39.39
2022-08-19T12:18:52.362Z,39.43
2022-08-19T12:21:29.064Z,40.26
2022-08-19T12:23:58.509Z,39.56
2022-08-19T12:26:27.932Z,39.29
2022-08-19T12:28:55.579Z,39.09
2022-08-19T12:31:22.984Z,38.65
2022-08-19T12:33:50.658Z,38.37
2022-08-19T12:36:18.836Z,38.57
2022-08-19T12:38:46.464Z,38.05
2022-08-19T12:41:18.699Z,38.23
2022-08-19T12:43:46.529Z,39.02
2022-08-19T12:46:15.254Z,39.82
2022-08-19T12:48:46.482Z,39.49
2022-08-19T12:51:19.087Z,39.95
2022-08-19T12:53:47.406Z,40.35
2022-08-19T12:56:15.810Z,40.49
2022-08-19T12:58:49.043Z,39.96
2022-08-19T13:01:21.918Z,39.72
2022-08-19T13:03:53.492Z,40.40
2022-08-19T13:06:21.565Z,40.81
2022-08-19T13:08:49.066Z,40.38
2022-08-19T13:11:19.069Z,40.41
2022-08-19T13:13:48.821Z,40.51
2022-08-19T13:16:16.826Z,40.56
2022-08-19T13:18:47.817Z,40.48
2022-08-19T13:21:15.660Z,40.70
2022-08-19T13:23:43.921Z,40.44
2022-08-19T13:26:12.662Z,40.55
2022-08-19T13:28:59.634Z,39.79
2022-08-19T13:31:52.641Z,38.90
2022-08-19T13:34:31.550Z,38.83
2022-08-19T13:36:59.863Z,37.83
2022-08-19T13:39:28.426Z,36.88
2022-08-19T13:41:56.151Z,35.91
2022-08-19T13:44:23.631Z,34.65
2022-08-19T13:46:54.261Z,35.03
2022-08-19T13:49:24.072Z,34.39
2022-08-19T13:51:51.781Z,34.44
2022-08-19T13:54:19.216Z,33.72
2022-08-19T13:56:46.922Z,33.50
2022-08-19T13:59:14.815Z,33.32
2022-08-19T14:01:42.703Z,33.21
2022-08-19T14:04:10.438Z,33.47
2022-08-19T14:06:37.908Z,32.89
2022-08-19T14:09:05.809Z,33.31
2022-08-19T14:11:33.534Z,33.16
2022-08-19T14:14:00.943Z,32.90
2022-08-19T14:16:28.466Z,33.14
2022-08-19T14:18:56.193Z,32.81
2022-08-19T14:21:25.484Z,32.34
2022-08-19T14:23:53.401Z,32.23
2022-08-19T14:26:22.505Z,32.76
2022-08-19T14:28:50.502Z,32.40
2022-08-19T14:31:19.992Z,32.10
2022-08-19T14:33:48.417Z,32.66
2022-08-19T14:36:16.014Z,32.76
2022-08-19T14:38:44.079Z,32.11
2022-08-19T14:41:14.008Z,32.06
2022-08-19T14:43:41.584Z,32.35
2022-08-19T14:46:09.180Z,31.90
2022-08-19T14:48:41.525Z,31.60
2022-08-19T14:51:09.639Z,31.68
2022-08-19T14:53:37.270Z,32.06
2022-08-19T14:56:13.923Z,32.01
2022-08-19T14:58:42.927Z,32.00
2022-08-19T15:01:12.301Z,31.91
2022-08-19T15:03:41.542Z,32.38
2022-08-19T15:06:09.765Z,31.40
2022-08-19T15:08:41.971Z,32.29
2022-08-19T15:11:11.790Z,32.31
2022-08-19T15:13:40.579Z,31.99
2022-08-19T15:16:10.058Z,32.38
2022-08-19T15:18:46.427Z,32.15
2022-08-19T15:21:26.810Z,32.04
2022-08-19T15:23:56.951Z,31.71
2022-08-19T15:26:26.184Z,31.35
2022-08-19T15:28:53.575Z,31.86
2022-08-19T15:31:25.631Z,31.57
2022-08-19T15:34:00.272Z,32.28
2022-08-19T15:36:28.279Z,31.81
2022-08-19T15:38:57.047Z,31.57
2022-08-19T15:41:29.059Z,31.84
2022-08-19T15:44:04.422Z,32.20
2022-08-19T15:46:33.579Z,32.17
2022-08-19T15:49:01.590Z,31.83
2022-08-19T15:51:30.562Z,31.23
2022-08-19T15:53:59.491Z,31.43
2022-08-19T15:56:47.405Z,30.75
2022-08-19T15:59:47.290Z,31.15
2022-08-19T16:02:37.229Z,30.37
2022-08-19T16:05:25.975Z,31.33
2022-08-19T16:07:54.254Z,31.40
2022-08-19T16:10:26.241Z,31.32
2022-08-19T16:12:59.079Z,30.94
2022-08-19T16:15:28.038Z,31.34
2022-08-19T16:17:58.970Z,31.51
2022-08-19T16:20:27.929Z,31.38
2022-08-19T16:22:59.306Z,30.78
2022-08-19T16:25:29.994Z,31.27
2022-08-19T16:28:07.939Z,30.88
2022-08-19T16:30:39.076Z,30.99
2022-08-19T16:33:07.559Z,30.24
2022-08-19T16:35:34.971Z,29.75
2022-08-19T16:38:02.780Z,29.57
2022-08-19T16:40:30.244Z,29.16
2022-08-19T16:42:57.659Z,29.27
2022-08-19T16:45:25.392Z,29.22
2022-08-19T16:47:52.812Z,29.08
2022-08-19T16:50:25.369Z,29.17
2022-08-19T16:53:07.421Z,29.00
2022-08-19T16:55:34.819Z,29.58
2022-08-19T16:58:04.407Z,29.08
2022-08-19T17:00:32.090Z,29.33
2022-08-19T17:03:10.001Z,29.05
2022-08-19T17:05:51.038Z,28.87
2022-08-19T17:08:20.631Z,28.28
2022-08-19T17:11:16.577Z,28.21
2022-08-19T17:13:37.574Z,28.27
2022-08-19T17:16:06.573Z,28.88
2022-08-19T17:18:34.125Z,28.80
2022-08-19T17:21:01.906Z,28.60
2022-08-19T17:23:42.359Z,28.18
2022-08-19T17:26:17.938Z,27.74
2022-08-19T17:28:51.411Z,27.34
2022-08-19T17:31:21.220Z,27.24
2022-08-19T17:33:49.332Z,27.46
2022-08-19T17:36:18.480Z,27.45
2022-08-19T17:38:46.016Z,27.39
2022-08-19T17:41:13.782Z,27.38
2022-08-19T17:43:43.891Z,27.34
2022-08-19T17:46:17.715Z,27.67
2022-08-19T17:48:54.693Z,27.46
2022-08-19T17:51:42.394Z,27.60
2022-08-19T17:54:14.447Z,27.71
2022-08-19T17:56:43.023Z,27.91
2022-08-19T17:59:14.106Z,28.15
2022-08-19T18:01:53.047Z,28.40
2022-08-19T18:04:26.294Z,27.78
2022-08-19T18:06:55.602Z,26.88
2022-08-19T18:09:30.126Z,25.88
2022-08-19T18:12:13.932Z,25.85
2022-08-19T18:14:42.085Z,25.66
2022-08-19T18:17:15.201Z,26.44
2022-08-19T18:19:44.034Z,27.25
2022-08-19T18:22:13.266Z,26.76
2022-08-19T18:24:41.858Z,26.09
2022-08-19T18:27:10.178Z,25.42
2022-08-19T18:29:38.664Z,25.22
2022-08-19T18:32:12.532Z,24.60
2022-08-19T18:34:42.210Z,24.09
2022-08-19T18:37:10.518Z,23.87
2022-08-19T18:39:56.632Z,23.62
2022-08-19T18:42:43.195Z,23.79
2022-08-19T18:45:29.644Z,23.42
2022-08-19T18:48:27.368Z,23.12
2022-08-19T18:50:57.530Z,22.82
2022-08-19T18:53:27.723Z,22.06
2022-08-19T18:55:55.736Z,22.03
2022-08-19T18:58:35.901Z,22.37
2022-08-19T19:01:25.511Z,22.54
2022-08-19T19:03:54.613Z,23.69
2022-08-19T19:06:34.729Z,23.55
2022-08-19T19:09:02.323Z,23.65
2022-08-19T19:11:37.312Z,22.84
2022-08-19T19:14:16.255Z,23.21
2022-08-19T19:16:55.453Z,23.51
2022-08-19T19:19:24.059Z,23.67
2022-08-19T19:21:53.382Z,23.92
2022-08-19T19:24:24.235Z,24.21
2022-08-19T19:26:53.416Z,23.67
2022-08-19T19:29:21.569Z,23.36
2022-08-19T19:31:53.060Z,23.70
2022-08-19T19:34:29.725Z,22.98
2022-08-19T19:36:57.843Z,21.94
2022-08-19T19:39:34.059Z,22.54
2022-08-19T19:42:21.813Z,23.12
2022-08-19T19:44:52.037Z,22.19
2022-08-19T19:47:20.018Z,23.52
2022-08-19T19:52:40.636Z,22.58
2022-08-19T19:55:09.630Z,22.24
2022-08-19T19:57:39.865Z,22.48
2022-08-19T20:00:09.120Z,22.06
2022-08-19T20:02:36.835Z,21.88
2022-08-19T20:05:05.376Z,22.74
2022-08-19T20:07:51.740Z,22.13
2022-08-19T20:10:19.475Z,21.34
2022-08-19T20:12:47.013Z,21.59
2022-08-19T20:15:14.941Z,21.80
2022-08-19T20:17:43.138Z,21.78
2022-08-19T20:20:11.992Z,21.44
2022-08-19T20:22:47.415Z,21.38
2022-08-19T20:25:16.998Z,21.05
2022-08-19T20:27:44.902Z,21.00
2022-08-19T20:30:19.441Z,21.03
2022-08-19T20:32:51.073Z,21.01
2022-08-19T20:35:21.082Z,21.01
2022-08-19T20:37:49.151Z,20.95
2022-08-19T20:40:20.637Z,20.93
2022-08-19T20:42:50.716Z,20.93
2022-08-19T20:45:32.849Z,20.88
2022-08-19T20:48:03.759Z,20.91
2022-08-19T20:50:33.064Z,21.04
2022-08-19T20:53:01.057Z,21.14
2022-08-19T20:55:30.525Z,21.85
2022-08-19T20:57:58.740Z,22.80
2022-08-19T21:00:26.525Z,22.88
2022-08-19T21:02:54.246Z,22.95
2022-08-19T21:05:21.685Z,23.40
2022-08-19T21:07:49.132Z,23.74
2022-08-19T21:10:16.838Z,24.02
2022-08-19T21:12:44.479Z,24.37
2022-08-19T21:15:12.175Z,24.24
2022-08-19T21:17:40.150Z,23.72
2022-08-19T21:20:09.900Z,24.27
2022-08-19T21:22:37.522Z,23.85
2022-08-19T21:25:06.148Z,24.58
2022-08-19T21:27:33.573Z,24.55
2022-08-19T21:30:00.997Z,23.48
2022-08-19T21:32:28.750Z,23.05
2022-08-19T21:34:56.851Z,22.80
2022-08-19T21:37:25.260Z,22.51
2022-08-19T21:39:56.621Z,21.75
2022-08-19T21:42:24.126Z,22.69
2022-08-19T21:44:51.972Z,23.09
2022-08-19T21:47:19.670Z,22.82
2022-08-19T21:49:47.117Z,22.91
2022-08-19T21:52:23.798Z,22.88
2022-08-19T21:54:51.746Z,23.07
2022-08-19T21:57:19.195Z,23.45
2022-08-19T21:59:46.623Z,23.51
2022-08-19T22:02:20.434Z,23.38
2022-08-19T22:04:52.343Z,22.94
2022-08-19T22:07:20.976Z,22.71
2022-08-19T22:09:50.193Z,22.43
2022-08-19T22:12:26.752Z,23.26
2022-08-19T22:14:55.395Z,24.06
2022-08-19T22:17:23.525Z,23.46
2022-08-19T22:19:52.516Z,23.58
2022-08-19T22:22:24.190Z,23.36
2022-08-19T22:24:52.514Z,22.72
2022-08-19T22:27:20.506Z,21.99
2022-08-19T22:29:47.933Z,22.05
2022-08-19T22:32:26.878Z,23.46
2022-08-19T22:35:00.588Z,23.13
2022-08-19T22:37:31.787Z,23.03
2022-08-19T22:40:03.203Z,23.12
2022-08-19T22:42:33.460Z,23.52
2022-08-19T22:45:00.880Z,23.71
2022-08-19T22:47:30.150Z,22.94
2022-08-19T22:50:02.018Z,22.40
2022-08-19T22:52:29.772Z,22.74
2022-08-19T22:55:00.904Z,23.92
2022-08-19T22:57:28.634Z,24.29
2022-08-19T22:59:58.885Z,24.46
2022-08-19T23:02:38.421Z,22.75
2022-08-19T23:05:08.661Z,22.85
2022-08-19T23:07:37.223Z,22.52
2022-08-19T23:10:06.624Z,22.42
2022-08-19T23:12:38.752Z,22.23
2022-08-19T23:15:10.199Z,22.11
2022-08-19T23:17:37.672Z,22.09
2022-08-19T23:20:06.290Z,22.55
2022-08-19T23:22:35.264Z,22.08
2022-08-19T23:25:06.807Z,22.13
2022-08-19T23:27:53.312Z,21.75
2022-08-19T23:30:27.052Z,21.91
2022-08-19T23:32:56.563Z,22.68
2022-08-19T23:35:25.550Z,23.49
2022-08-19T23:37:53.108Z,23.26
2022-08-19T23:40:21.919Z,23.21
2022-08-19T23:42:51.721Z,23.30
2022-08-19T23:45:23.616Z,22.55
2022-08-19T23:47:53.281Z,22.21
2022-08-19T23:50:22.056Z,22.22
2022-08-19T23:52:53.482Z,22.10
2022-08-19T23:55:23.716Z,21.90
2022-08-19T23:57:51.815Z,21.94
